KFKL

Venango Regional Airport

Airport
ICAO code
KFKL
Summary
ICAO Region
NAM
ICAO Territory
Location

Franklin, Pennsylvania,

Elevation
1540 ft
Coordinates
41° 22' 40" N , 79° 51' 37" W
KCC
Airport GND
Aircraft Ground De/Anti Icing
Airport RE
Landing on Contaminated Runways
Airport WX
Cumulonimbus
Metar
KFKL 200456Z AUTO 03004KT 10SM CLR 16/16 A3017 RMK AO2 SLP211 T01560156 402500100

Description

Venango Regional Airport, also known as Chess Lamberton Field, is a public use airport located 4 km southwest of the central business district of Franklin, a city in Venango County, Pennsylvania.

Climatology

Humid continental climate (Köppen climate classification Dfa) - characterized by four seasons: cold, windy, snowy winters, mild springs, hot, humid summers, and crisp and relatively short autumns. Precipitation reaches its lowest in January and February and peaks in summer and latter half of spring.

Airport map

Aerial View

SKYbrary Partners:

Safety knowledge contributed by: